Time;durP1;ratioP1;P1;durP2;ratioP2;P2;SDS_P1;SDS_P2;PMS_P1;PMS_P2;Temp;Humidity;BMP_temperature;BMP_pressure;BME280_temperature;BME280_humidity;BME280_pressure;Samples;Min_cycle;Max_cycle;Signal;HPM_P1;HPM_P2
2022/09/01 00:00:29;;;;;;;5.72;2.00;;;;;;;17.51;100.00;101953.28;5288283;28;20072;-74
2022/09/01 00:03:00;;;;;;;6.65;1.90;;;;;;;17.45;100.00;101948.63;5288431;28;20054;-73
2022/09/01 00:05:31;;;;;;;8.15;2.65;;;;;;;17.36;100.00;101947.84;5269047;28;20505;-73
2022/09/01 00:08:03;;;;;;;4.03;2.00;;;;;;;17.30;100.00;101943.16;5280249;28;20106;-74
2022/09/01 00:10:34;;;;;;;5.32;1.98;;;;;;;17.25;100.00;101946.41;5287394;28;20027;-74
2022/09/01 00:13:06;;;;;;;9.23;2.58;;;;;;;17.19;100.00;101947.16;5287959;28;20061;-74
2022/09/01 00:15:36;;;;;;;3.88;1.77;;;;;;;17.13;100.00;101937.06;5287521;28;20028;-74
2022/09/01 00:18:07;;;;;;;8.60;2.08;;;;;;;17.09;100.00;101941.16;5274183;28;20077;-74
2022/09/01 00:20:37;;;;;;;3.75;2.03;;;;;;;17.03;100.00;101931.03;5287856;28;20451;-74
2022/09/01 00:23:08;;;;;;;7.28;2.05;;;;;;;17.01;100.00;101938.50;5287056;28;20138;-74
2022/09/01 00:25:38;;;;;;;3.70;1.73;;;;;;;16.99;100.00;101935.13;5287467;28;20476;-73
2022/09/01 00:28:09;;;;;;;3.67;1.80;;;;;;;16.95;100.00;101934.66;5287402;28;20073;-74
2022/09/01 00:30:40;;;;;;;4.40;2.05;;;;;;;16.93;100.00;101935.88;5286919;28;20050;-74
2022/09/01 00:33:10;;;;;;;7.43;1.90;;;;;;;16.89;100.00;101934.53;5287411;28;20023;-74
2022/09/01 00:35:41;;;;;;;6.72;2.03;;;;;;;16.86;100.00;101934.88;5286795;28;20068;-74
2022/09/01 00:38:11;;;;;;;3.63;1.30;;;;;;;16.81;100.00;101941.69;5287813;28;20030;-75
2022/09/01 00:40:42;;;;;;;2.28;1.23;;;;;;;16.77;100.00;101936.84;5273560;28;20439;-74
2022/09/01 00:43:49;;;;;;;5.00;1.73;;;;;;;16.73;100.00;101940.94;5287608;28;20491;-74
2022/09/01 00:46:23;;;;;;;5.28;1.48;;;;;;;16.68;100.00;101938.72;5286865;28;20028;-74
2022/09/01 00:49:00;;;;;;;4.32;1.70;;;;;;;16.66;100.00;101940.75;5269029;28;20027;-74
2022/09/01 00:51:33;;;;;;;6.03;1.73;;;;;;;16.63;100.00;101935.72;5287568;28;20477;-74
2022/09/01 00:54:07;;;;;;;2.72;1.60;;;;;;;16.58;100.00;101938.13;5286897;28;20483;-74
2022/09/01 00:56:40;;;;;;;2.78;1.55;;;;;;;16.51;100.00;101934.41;5287440;28;20035;-75
2022/09/01 00:59:11;;;;;;;6.50;1.75;;;;;;;16.45;100.00;101932.44;5286832;28;20024;-75
2022/09/01 01:01:42;;;;;;;7.00;1.60;;;;;;;16.39;100.00;101925.88;5287658;28;20030;-74
2022/09/01 01:04:13;;;;;;;2.53;1.40;;;;;;;16.34;100.00;101930.97;5286237;28;20388;-74
2022/09/01 01:06:48;;;;;;;3.67;1.70;;;;;;;16.30;100.00;101930.47;5287456;28;20088;-75
2022/09/01 01:09:41;;;;;;;4.45;1.85;;;;;;;16.27;100.00;101933.56;5287299;28;20381;-75
2022/09/01 01:12:16;;;;;;;3.67;1.90;;;;;;;16.27;100.00;101932.72;5286994;28;20020;-75
2022/09/01 01:14:49;;;;;;;3.70;1.75;;;;;;;16.27;100.00;101925.44;5286195;28;20026;-75
2022/09/01 01:17:21;;;;;;;7.78;1.70;;;;;;;16.27;100.00;101922.72;5287155;28;20503;-75
2022/09/01 01:23:09;;;;;;;4.18;2.03;;;;;;;16.24;100.00;101931.19;5286797;28;20028;-74
2022/09/01 01:25:56;;;;;;;;;;;;;;;16.18;100.00;101923.78;5278199;28;20561;-75
2022/09/01 01:28:30;;;;;;;4.57;1.63;;;;;;;16.12;100.00;101927.22;5286642;28;20010;-74
2022/09/01 01:31:10;;;;;;;8.75;2.10;;;;;;;16.04;100.00;101928.06;5286877;28;20100;-73
2022/09/01 01:33:44;;;;;;;10.07;2.05;;;;;;;16.00;100.00;101932.16;5286215;28;20027;-73
2022/09/01 01:36:18;;;;;;;2.65;1.60;;;;;;;15.98;100.00;101928.78;5286022;28;20032;-75
2022/09/01 01:38:49;;;;;;;3.60;1.57;;;;;;;15.96;100.00;101936.22;5286510;28;20027;-74
2022/09/01 01:41:20;;;;;;;6.13;1.52;;;;;;;15.92;100.00;101934.91;5286386;28;20280;-75
2022/09/01 01:43:51;;;;;;;4.97;2.05;;;;;;;15.89;100.00;101934.41;5286197;28;20027;-74
2022/09/01 01:46:24;;;;;;;2.88;1.45;;;;;;;15.85;100.00;101936.59;5267227;28;20028;-74
2022/09/01 01:48:56;;;;;;;3.92;1.25;;;;;;;15.82;100.00;101933.44;5286450;28;20046;-73
2022/09/01 01:51:29;;;;;;;3.55;1.80;;;;;;;15.80;100.00;101936.28;5286344;28;20442;-73
2022/09/01 01:54:04;;;;;;;8.38;2.35;;;;;;;15.75;100.00;101931.41;5286238;28;20530;-75
2022/09/01 01:56:40;;;;;;;3.55;1.60;;;;;;;15.72;100.00;101937.16;5285715;28;20035;-74
2022/09/01 01:59:13;;;;;;;6.95;2.00;;;;;;;15.69;100.00;101929.38;5286308;28;20020;-74
2022/09/01 02:04:34;;;;;;;3.85;1.50;;;;;;;15.70;100.00;101938.34;5285505;28;20026;-74
2022/09/01 02:07:10;;;;;;;4.03;1.58;;;;;;;15.69;100.00;101932.09;5285484;28;20019;-74
2022/09/01 02:09:44;;;;;;;8.68;1.70;;;;;;;15.71;100.00;101945.44;5286092;28;20015;-73
2022/09/01 02:12:18;;;;;;;2.80;1.83;;;;;;;15.75;100.00;101935.97;5285898;28;20392;-73
2022/09/01 02:14:49;;;;;;;3.60;1.60;;;;;;;15.77;100.00;101934.78;5267032;28;20027;-74
2022/09/01 02:17:20;;;;;;;6.47;2.40;;;;;;;15.80;100.00;101937.13;5286472;28;20035;-74
2022/09/01 02:19:55;;;;;;;5.75;1.90;;;;;;;15.83;100.00;101940.53;5285231;28;20092;-74
2022/09/01 02:22:27;;;;;;;;;;;;;;;15.84;100.00;101936.78;5286696;28;20396;-75
2022/09/01 02:24:59;;;;;;;5.18;2.17;;;;;;;15.84;100.00;101947.63;5285234;28;19907;-76
2022/09/01 02:27:32;;;;;;;6.45;2.10;;;;;;;15.83;100.00;101943.22;5285915;28;20055;-74
2022/09/01 02:30:05;;;;;;;9.10;2.30;;;;;;;15.81;100.00;101940.66;5285435;28;20027;-74
2022/09/01 02:32:36;;;;;;;3.65;1.85;;;;;;;15.77;100.00;101940.19;5267888;28;20016;-74
2022/09/01 02:35:08;;;;;;;4.95;1.88;;;;;;;15.75;100.00;101938.66;5285453;28;20051;-74
2022/09/01 02:37:40;;;;;;;5.95;1.52;;;;;;;15.73;100.00;101932.59;5285889;28;20441;-74
2022/09/01 02:40:10;;;;;;;8.32;1.80;;;;;;;15.71;100.00;101934.63;5285443;28;20604;-74
2022/09/01 02:42:42;;;;;;;7.95;2.00;;;;;;;15.66;100.00;101924.34;5285313;28;20028;-74
2022/09/01 02:45:14;;;;;;;5.82;1.63;;;;;;;15.63;100.00;101931.91;5284853;28;20019;-74
2022/09/01 02:47:47;;;;;;;2.75;1.58;;;;;;;15.57;100.00;101927.22;5285616;28;20028;-73
2022/09/01 02:50:18;;;;;;;5.68;1.70;;;;;;;15.50;100.00;101929.75;5285371;28;20362;-74
2022/09/01 02:52:49;;;;;;;5.13;1.88;;;;;;;15.45;100.00;101926.72;5285416;28;20081;-74
2022/09/01 02:55:21;;;;;;;6.65;1.75;;;;;;;15.41;100.00;101926.22;5286284;28;20496;-73
2022/09/01 03:00:42;;;;;;;4.20;1.80;;;;;;;15.45;100.00;101919.44;5289621;28;20027;-73
2022/09/01 03:03:12;;;;;;;6.55;2.50;;;;;;;15.46;100.00;101921.16;5271501;28;20059;-73
2022/09/01 03:05:43;;;;;;;5.25;2.35;;;;;;;15.43;100.00;101909.81;5288178;28;20444;-73
2022/09/01 03:08:15;;;;;;;4.03;2.35;;;;;;;15.39;100.00;101908.47;5289361;28;20051;-73
2022/09/01 03:10:46;;;;;;;4.97;2.28;;;;;;;15.33;100.00;101909.16;5289181;28;20685;-73
2022/09/01 03:13:22;;;;;;;7.53;2.15;;;;;;;15.25;100.00;101913.56;5289405;28;20520;-73
2022/09/01 03:15:53;;;;;;;6.40;2.08;;;;;;;15.18;100.00;101917.13;5289038;28;20318;-74
2022/09/01 03:18:23;;;;;;;8.13;2.50;;;;;;;15.06;100.00;101903.13;5288829;28;20030;-76
2022/09/01 03:20:55;;;;;;;7.97;2.60;;;;;;;14.96;100.00;101907.84;5279556;28;20016;-75
2022/09/01 03:23:26;;;;;;;7.53;2.45;;;;;;;14.86;100.00;101902.63;5285608;28;20495;-75
2022/09/01 03:25:57;;;;;;;4.97;2.83;;;;;;;14.74;100.00;101904.78;5288569;28;20019;-75
2022/09/01 03:28:27;;;;;;;4.78;2.47;;;;;;;14.66;100.00;101904.81;5287925;28;20160;-75
2022/09/01 03:30:58;;;;;;;5.60;2.40;;;;;;;14.63;100.00;101905.13;5288910;28;20024;-73
2022/09/01 03:33:29;;;;;;;8.20;2.80;;;;;;;14.59;100.00;101897.53;5288618;28;20022;-74
2022/09/01 03:35:59;;;;;;;7.05;2.80;;;;;;;14.56;100.00;101905.94;5288309;28;20019;-74
2022/09/01 03:38:30;;;;;;;8.93;2.88;;;;;;;14.50;100.00;101905.59;5288496;28;20034;-74
2022/09/01 03:41:04;;;;;;;10.25;2.90;;;;;;;14.42;100.00;101904.75;5270033;28;20027;-74
2022/09/01 03:43:35;;;;;;;9.93;3.17;;;;;;;14.33;100.00;101905.72;5288930;28;20012;-74
2022/09/01 03:46:08;;;;;;;9.18;2.83;;;;;;;14.23;100.00;101904.00;5287772;28;20038;-75
2022/09/01 03:48:38;;;;;;;6.45;2.75;;;;;;;14.14;100.00;101896.88;5288257;28;20023;-74
2022/09/01 03:51:13;;;;;;;10.20;2.95;;;;;;;14.07;100.00;101906.66;5288799;28;20031;-75
2022/09/01 03:53:44;;;;;;;8.43;3.00;;;;;;;14.02;100.00;101906.31;5288125;28;20457;-74
2022/09/01 03:56:15;;;;;;;10.23;3.00;;;;;;;13.97;100.00;101905.94;5287818;28;20031;-74
2022/09/01 03:58:46;;;;;;;7.80;3.08;;;;;;;13.93;100.00;101901.88;5288262;28;20038;-74
2022/09/01 04:01:17;;;;;;;7.43;2.70;;;;;;;13.89;100.00;101911.31;5288371;28;20027;-73
2022/09/01 04:03:48;;;;;;;9.73;3.38;;;;;;;13.83;100.00;101902.00;5287230;28;20023;-73
2022/09/01 04:06:20;;;;;;;11.70;3.33;;;;;;;13.78;100.00;101906.19;5269198;28;20023;-74
2022/09/01 04:09:01;;;;;;;14.98;3.42;;;;;;;13.75;100.00;101912.75;5288068;28;20055;-74
2022/09/01 04:11:32;;;;;;;11.98;3.58;;;;;;;13.71;100.00;101911.41;5288083;28;20491;-73
2022/09/01 04:14:03;;;;;;;10.65;3.45;;;;;;;13.69;100.00;101906.16;5287987;28;20125;-74
2022/09/01 04:19:25;;;;;;;13.93;4.32;;;;;;;13.60;100.00;101909.81;5288063;28;20461;-73
2022/09/01 04:21:58;;;;;;;16.52;3.50;;;;;;;13.57;100.00;101907.44;5287841;28;20019;-74
2022/09/01 04:24:31;;;;;;;13.55;4.55;;;;;;;13.55;100.00;101908.59;5286871;28;20062;-75
2022/09/01 04:27:02;;;;;;;19.88;4.18;;;;;;;13.53;100.00;101916.00;5288080;28;20438;-76
2022/09/01 04:29:33;;;;;;;10.88;4.00;;;;;;;13.54;100.00;101912.31;5269134;28;20114;-74
2022/09/01 04:32:08;;;;;;;18.92;4.53;;;;;;;13.55;100.00;101916.69;5287547;28;20465;-73
2022/09/01 04:34:39;;;;;;;;;;;;;;;13.53;100.00;101903.38;5287259;28;20032;-73
2022/09/01 04:37:13;;;;;;;11.18;3.95;;;;;;;13.51;100.00;101916.19;5287434;28;20376;-74
2022/09/01 04:39:59;;;;;;;12.43;4.25;;;;;;;13.46;100.00;101919.34;5273686;28;20357;-72
2022/09/01 04:42:31;;;;;;;12.57;4.60;;;;;;;13.44;100.00;101910.56;5287516;28;20058;-74
2022/09/01 04:45:02;;;;;;;10.27;4.25;;;;;;;13.40;100.00;101905.66;5286654;28;20053;-73
2022/09/01 04:47:32;;;;;;;12.18;4.63;;;;;;;13.37;100.00;101904.13;5286871;28;20028;-74
2022/09/01 04:50:12;;;;;;;18.88;4.68;;;;;;;13.35;100.00;101910.66;5287784;28;20023;-74
2022/09/01 04:52:44;;;;;;;11.82;4.50;;;;;;;13.33;100.00;101908.13;5287209;28;20135;-74
2022/09/01 04:58:04;;;;;;;11.80;5.00;;;;;;;13.34;100.00;101903.59;5275771;28;20582;-71
2022/09/01 05:00:34;;;;;;;17.30;5.55;;;;;;;13.33;100.00;101902.75;5277858;28;20019;-72
2022/09/01 05:03:05;;;;;;;17.70;4.85;;;;;;;13.37;100.00;101905.97;5274109;28;20028;-73
2022/09/01 05:05:41;;;;;;;14.65;5.10;;;;;;;13.39;100.00;101906.66;5283426;28;20031;-73
2022/09/01 05:08:17;;;;;;;19.70;6.35;;;;;;;13.39;100.00;101902.09;5284320;28;20485;-73
2022/09/01 05:10:51;;;;;;;17.95;6.10;;;;;;;13.42;100.00;101909.03;5284352;28;20396;-73
2022/09/01 05:13:22;;;;;;;15.07;5.83;;;;;;;13.43;100.00;101900.78;5281552;28;20020;-73
2022/09/01 05:16:14;;;;;;;15.40;6.38;;;;;;;13.45;100.00;101901.50;5272623;28;20028;-73
2022/09/01 05:18:47;;;;;;;14.82;6.07;;;;;;;13.47;100.00;101899.47;5282080;28;20069;-73
2022/09/01 05:21:23;;;;;;;23.45;7.60;;;;;;;13.50;100.00;101898.28;5284023;28;20030;-71
2022/09/01 05:23:57;;;;;;;15.23;6.72;;;;;;;13.53;100.00;101902.53;5281453;28;20035;-71
2022/09/01 05:26:30;;;;;;;23.15;6.65;;;;;;;13.56;100.00;101903.06;5263523;28;20584;-71
2022/09/01 05:29:09;;;;;;;14.35;6.78;;;;;;;13.60;100.00;101904.41;5281384;28;20493;-71
2022/09/01 05:31:42;;;;;;;19.00;7.57;;;;;;;13.65;100.00;101896.69;5281214;28;20038;-71
2022/09/01 05:34:14;;;;;;;17.98;7.80;;;;;;;13.71;100.00;101896.06;5281485;28;20115;-71
2022/09/01 05:36:49;;;;;;;22.52;8.57;;;;;;;13.77;100.00;101896.44;5283002;28;20522;-72
2022/09/01 05:39:20;;;;;;;24.10;7.53;;;;;;;13.83;100.00;101903.88;5281864;28;20473;-72
2022/09/01 05:41:52;;;;;;;27.60;7.22;;;;;;;13.87;100.00;101898.00;5281488;28;20038;-72
2022/09/01 05:44:23;;;;;;;18.90;6.75;;;;;;;13.93;100.00;101896.50;5281108;28;20031;-72
2022/09/01 05:46:54;;;;;;;24.40;7.65;;;;;;;13.99;100.00;101893.97;5282206;28;20012;-73
2022/09/01 05:49:26;;;;;;;20.08;7.25;;;;;;;14.06;100.00;101896.88;5280306;28;20243;-72
2022/09/01 05:51:57;;;;;;;19.25;6.88;;;;;;;14.28;100.00;101898.13;5281279;28;20035;-72
2022/09/01 05:54:28;;;;;;;19.50;8.48;;;;;;;14.71;100.00;101904.31;5280658;28;20366;-73
2022/09/01 05:57:00;;;;;;;24.02;7.43;;;;;;;15.25;100.00;101901.91;5263888;28;20035;-72
2022/09/01 05:59:31;;;;;;;24.63;7.30;;;;;;;15.72;100.00;101904.72;5282943;28;20024;-73
2022/09/01 06:02:02;;;;;;;19.63;7.65;;;;;;;15.99;100.00;101905.28;5283052;28;20102;-73
2022/09/01 06:04:34;;;;;;;20.50;8.52;;;;;;;15.90;100.00;101904.44;5282453;28;20358;-73
2022/09/01 06:07:06;;;;;;;18.05;7.47;;;;;;;15.71;100.00;101911.16;5282779;28;20055;-73
2022/09/01 06:09:40;;;;;;;18.80;7.55;;;;;;;15.62;100.00;101912.16;5283263;28;20114;-73
2022/09/01 06:15:00;;;;;;;23.83;8.77;;;;;;;15.63;100.00;101919.28;5282171;28;20024;-73
2022/09/01 06:17:30;;;;;;;20.48;8.43;;;;;;;15.50;100.00;101918.91;5283250;28;20435;-73
2022/09/01 06:20:09;;;;;;;21.70;8.45;;;;;;;15.41;100.00;101923.53;5283181;28;20023;-73
2022/09/01 06:22:39;;;;;;;20.85;7.65;;;;;;;15.29;100.00;101925.72;5283528;28;20100;-72
2022/09/01 06:25:10;;;;;;;30.27;9.40;;;;;;;15.23;100.00;101914.75;5282161;28;20027;-72
2022/09/01 06:27:43;;;;;;;27.27;8.95;;;;;;;15.34;100.00;101917.09;5282640;28;20070;-73
2022/09/01 06:30:19;;;;;;;26.25;8.63;;;;;;;15.63;100.00;101921.97;5282733;28;20027;-73
2022/09/01 06:32:50;;;;;;;17.35;7.63;;;;;;;16.07;100.00;101918.78;5283130;28;20012;-73
2022/09/01 06:35:28;;;;;;;18.77;8.55;;;;;;;16.31;100.00;101920.50;5264334;28;20019;-73
2022/09/01 06:38:00;;;;;;;16.77;8.15;;;;;;;16.33;100.00;101921.16;5268725;28;20374;-73
2022/09/01 06:40:32;;;;;;;23.90;8.77;;;;;;;16.25;100.00;101919.34;5283005;28;20102;-72
2022/09/01 06:43:06;;;;;;;19.98;8.38;;;;;;;16.16;100.00;101922.25;5282743;28;20449;-73
2022/09/01 06:45:41;;;;;;;30.40;9.10;;;;;;;16.19;100.00;101930.03;5282482;28;20060;-73
2022/09/01 06:48:14;;;;;;;16.33;8.07;;;;;;;16.27;100.00;101924.59;5283121;28;20419;-73
2022/09/01 06:50:45;;;;;;;29.55;8.77;;;;;;;16.25;100.00;101932.03;5282855;28;20042;-73
2022/09/01 06:53:17;;;;;;;22.23;7.70;;;;;;;16.21;100.00;101936.13;5281996;28;20447;-72
2022/09/01 06:55:48;;;;;;;23.00;8.52;;;;;;;16.15;100.00;101934.97;5283988;28;20020;-72
2022/09/01 06:58:18;;;;;;;27.05;7.82;;;;;;;16.45;100.00;101935.13;5284462;28;20035;-72
2022/09/01 07:00:50;;;;;;;22.90;8.02;;;;;;;16.92;100.00;101942.28;5266051;28;20118;-72
2022/09/01 07:03:21;;;;;;;25.73;8.98;;;;;;;17.23;100.00;101942.22;5284683;28;20410;-72
2022/09/01 07:05:52;;;;;;;23.00;7.82;;;;;;;17.72;100.00;101947.13;5283208;28;20054;-72
2022/09/01 07:08:23;;;;;;;24.92;8.40;;;;;;;18.32;100.00;101946.06;5284160;28;20114;-72
2022/09/01 07:10:55;;;;;;;17.33;7.82;;;;;;;18.84;100.00;101940.44;5284380;28;20374;-73
2022/09/01 07:13:26;;;;;;;16.25;6.88;;;;;;;19.62;100.00;101945.88;5283554;28;20081;-72
2022/09/01 07:15:57;;;;;;;20.88;7.03;;;;;;;20.41;100.00;101948.16;5283880;28;20407;-73
2022/09/01 07:18:30;;;;;;;15.93;6.97;;;;;;;21.34;100.00;101951.09;5284154;28;20393;-73
2022/09/01 07:21:06;;;;;;;14.38;6.50;;;;;;;22.27;100.00;101957.19;5284566;28;20110;-72
2022/09/01 07:23:38;;;;;;;17.70;6.25;;;;;;;23.10;100.00;101950.84;5283878;28;20032;-73
2022/09/01 07:26:09;;;;;;;16.17;5.95;;;;;;;23.76;98.56;101951.06;5282890;28;20019;-73
2022/09/01 07:28:39;;;;;;;11.65;5.22;;;;;;;24.11;95.03;101952.38;5284127;28;20027;-73
2022/09/01 07:31:19;;;;;;;11.80;5.53;;;;;;;24.33;90.98;101959.03;5283831;28;20035;-73
2022/09/01 07:33:52;;;;;;;10.48;4.47;;;;;;;24.63;89.38;101955.50;5284116;28;20110;-73
2022/09/01 07:36:22;;;;;;;8.18;5.07;;;;;;;24.97;90.49;101956.69;5283306;28;20045;-73
2022/09/01 07:38:52;;;;;;;5.82;3.85;;;;;;;25.21;86.29;101957.59;5284385;28;20032;-73
2022/09/01 07:41:25;;;;;;;13.18;4.20;;;;;;;25.36;86.93;101954.38;5286335;28;20031;-73
2022/09/01 07:43:55;;;;;;;12.15;4.13;;;;;;;25.55;81.25;101958.66;5288585;28;20264;-72
2022/09/01 07:46:27;;;;;;;11.82;3.42;;;;;;;25.61;79.61;101963.22;5287504;28;20110;-73
2022/09/01 07:49:00;;;;;;;14.13;4.05;;;;;;;25.55;80.82;101953.16;5287433;28;20034;-72
2022/09/01 07:51:33;;;;;;;8.38;3.55;;;;;;;25.66;81.39;101957.00;5288043;28;20429;-72
2022/09/01 07:54:05;;;;;;;7.10;3.60;;;;;;;25.53;81.36;101960.81;5287580;28;20464;-72
2022/09/01 07:56:36;;;;;;;8.05;3.53;;;;;;;25.38;81.22;101955.81;5288133;28;20538;-72
2022/09/01 07:59:08;;;;;;;9.82;3.78;;;;;;;25.39;80.27;101962.13;5287043;28;20039;-73
2022/09/01 08:01:39;;;;;;;6.80;3.80;;;;;;;25.51;80.43;101950.09;5287449;28;20027;-73
2022/09/01 08:04:09;;;;;;;6.55;3.92;;;;;;;25.87;80.28;101956.41;5286192;28;20050;-73
2022/09/01 08:06:41;;;;;;;6.38;3.30;;;;;;;26.23;76.49;101959.91;5287954;28;20019;-73
2022/09/01 08:09:11;;;;;;;5.07;3.17;;;;;;;26.25;75.78;101964.06;5280403;28;20040;-72
2022/09/01 08:11:43;;;;;;;7.40;3.35;;;;;;;26.28;76.76;101957.25;5280573;28;20114;-73
2022/09/01 08:14:14;;;;;;;4.90;2.95;;;;;;;26.44;75.15;101955.69;5286399;28;20022;-72
2022/09/01 08:16:44;;;;;;;7.10;3.08;;;;;;;26.50;74.65;101952.78;5287591;28;20024;-73
2022/09/01 08:19:17;;;;;;;8.85;3.40;;;;;;;26.68;74.19;101951.75;5287241;28;20031;-72
2022/09/01 08:21:47;;;;;;;9.88;4.05;;;;;;;26.63;71.44;101954.41;5287708;28;20097;-73
2022/09/01 08:24:18;;;;;;;6.88;3.08;;;;;;;26.64;73.25;101949.72;5286301;28;20485;-72
2022/09/01 08:26:48;;;;;;;8.50;2.83;;;;;;;26.70;71.83;101955.06;5287371;28;20031;-72
2022/09/01 08:29:19;;;;;;;6.60;3.00;;;;;;;26.74;70.16;101960.91;5287155;28;20027;-72
2022/09/01 08:31:49;;;;;;;6.75;2.30;;;;;;;26.72;71.97;101955.69;5288088;28;20114;-73
2022/09/01 08:34:20;;;;;;;7.57;2.95;;;;;;;26.74;72.08;101949.91;5286901;28;20023;-74
2022/09/01 08:36:51;;;;;;;5.93;2.50;;;;;;;26.95;71.76;101949.19;5287351;28;20035;-73
2022/09/01 08:39:21;;;;;;;6.68;3.00;;;;;;;27.13;70.69;101947.31;5273877;28;20090;-74
2022/09/01 08:42:20;;;;;;;7.78;3.13;;;;;;;27.02;68.20;101941.59;5288220;28;20020;-74
2022/09/01 08:44:57;;;;;;;12.40;3.47;;;;;;;27.00;70.94;101941.00;5274655;28;20031;-74
2022/09/01 08:47:29;;;;;;;5.72;2.53;;;;;;;27.03;67.63;101940.50;5287175;28;20045;-74
2022/09/01 08:50:00;;;;;;;6.65;2.03;;;;;;;26.96;68.77;101944.50;5287214;28;20027;-74
2022/09/01 08:52:35;;;;;;;5.72;2.30;;;;;;;27.27;68.86;101943.97;5286060;28;20039;-74
2022/09/01 08:55:15;;;;;;;10.30;2.65;;;;;;;27.32;66.96;101940.47;5286913;28;20042;-71
2022/09/01 08:57:47;;;;;;;2.92;2.13;;;;;;;27.33;65.62;101942.13;5273583;28;20024;-73
2022/09/01 09:00:22;;;;;;;6.28;2.03;;;;;;;27.55;66.12;101940.25;5287068;28;20341;-73
2022/09/01 09:03:16;;;;;;;6.72;2.38;;;;;;;27.68;67.06;101944.56;5287160;28;20049;-74
2022/09/01 09:06:11;;;;;;;2.63;2.15;;;;;;;27.91;65.18;101943.53;5286110;28;20035;-73
2022/09/01 09:08:41;;;;;;;;;;;;;;;27.96;64.93;101940.00;5287480;28;20015;-74
2022/09/01 09:11:49;;;;;;;3.90;2.00;;;;;;;28.13;63.79;101929.75;5286907;28;19914;-74
2022/09/01 09:14:48;;;;;;;7.05;2.00;;;;;;;28.37;65.06;101931.16;5274790;28;20265;-74
2022/09/01 09:17:26;;;;;;;6.07;2.20;;;;;;;28.61;64.15;101930.84;5274248;28;20532;-74
2022/09/01 09:19:56;;;;;;;5.38;1.85;;;;;;;28.64;61.30;101924.81;5286686;28;20023;-74
2022/09/01 09:22:27;;;;;;;4.85;2.00;;;;;;;28.69;61.94;101924.03;5286599;28;20495;-74
2022/09/01 09:25:13;;;;;;;2.33;1.50;;;;;;;28.70;62.03;101918.22;5285669;28;20100;-74
2022/09/01 09:27:47;;;;;;;3.60;1.90;;;;;;;28.88;61.61;101922.53;5287074;28;20027;-74
2022/09/01 09:30:22;;;;;;;3.33;1.80;;;;;;;29.05;59.63;101920.50;5286138;28;20028;-74
2022/09/01 09:33:05;;;;;;;6.95;3.65;;;;;;;29.09;58.63;101918.88;5286405;28;20030;-74
2022/09/01 09:35:53;;;;;;;25.48;13.88;;;;;;;28.86;57.02;101919.19;5285820;28;20027;-74
2022/09/01 09:41:26;;;;;;;6.60;2.05;;;;;;;28.57;56.06;101911.22;5286141;28;20024;-74
2022/09/01 09:44:02;;;;;;;11.52;2.55;;;;;;;28.75;57.00;101903.66;5285998;28;20035;-73
2022/09/01 09:46:37;;;;;;;6.10;4.28;;;;;;;29.03;55.21;101899.78;5285773;28;20102;-73
2022/09/01 09:49:27;;;;;;;2.33;1.65;;;;;;;28.71;52.57;101905.25;5286194;28;20034;-73
2022/09/01 09:52:15;;;;;;;9.43;2.40;;;;;;;28.53;52.46;101900.97;5286354;28;20555;-73
2022/09/01 09:55:02;;;;;;;3.38;1.40;;;;;;;28.23;51.10;101895.94;5275684;28;20015;-73
2022/09/01 09:57:39;;;;;;;4.40;1.52;;;;;;;28.16;49.66;101892.53;5288385;28;20023;-73
2022/09/01 10:00:32;;;;;;;5.65;1.52;;;;;;;28.02;50.63;101901.22;5287898;28;20370;-73
2022/09/01 10:03:06;;;;;;;9.27;1.60;;;;;;;28.03;50.77;101897.38;5287459;28;20431;-73
2022/09/01 10:05:56;;;;;;;4.97;1.33;;;;;;;27.99;50.43;101893.44;5286215;28;20072;-73
2022/09/01 10:08:28;;;;;;;4.07;1.50;;;;;;;27.79;48.99;101893.19;5285267;28;20043;-73
2022/09/01 10:10:58;;;;;;;5.10;1.85;;;;;;;27.38;49.65;101884.34;5286131;28;20055;-73
2022/09/01 10:13:31;;;;;;;3.30;1.50;;;;;;;27.35;50.42;101890.34;5286121;28;20078;-73
2022/09/01 10:16:06;;;;;;;3.33;1.50;;;;;;;27.04;49.56;101887.09;5285124;28;20039;-72
2022/09/01 10:18:38;;;;;;;;;;;;;;;26.82;50.30;101886.19;5266465;28;20039;-72
2022/09/01 10:21:15;;;;;;;2.28;1.35;;;;;;;27.01;50.56;101878.50;5277994;28;20238;-72
2022/09/01 10:23:45;;;;;;;5.13;1.38;;;;;;;27.24;51.89;101875.59;5285598;28;20627;-72
2022/09/01 10:26:24;;;;;;;7.70;1.50;;;;;;;27.28;49.34;101890.53;5285244;28;20145;-73
2022/09/01 10:29:03;;;;;;;3.25;1.45;;;;;;;27.32;51.51;101877.94;5285135;28;20023;-73
2022/09/01 10:31:36;;;;;;;3.78;1.33;;;;;;;27.39;49.30;101885.19;5285345;28;20032;-73
2022/09/01 10:34:15;;;;;;;2.97;1.40;;;;;;;27.46;50.36;101881.16;5285013;28;20020;-72
2022/09/01 10:36:47;;;;;;;2.40;1.25;;;;;;;27.65;51.15;101884.44;5272902;28;20050;-72
2022/09/01 10:39:18;;;;;;;4.82;1.42;;;;;;;27.69;48.79;101882.00;5285424;28;20052;-73
2022/09/01 10:41:55;;;;;;;2.75;1.58;;;;;;;27.81;49.69;101878.09;5285203;28;20076;-73
2022/09/01 10:44:55;;;;;;;5.72;1.33;;;;;;;27.84;49.47;101876.72;5284756;28;20077;-73
2022/09/01 10:47:32;;;;;;;4.18;1.67;;;;;;;27.99;48.59;101879.66;5285355;28;20027;-73
2022/09/01 10:50:21;;;;;;;3.95;1.73;;;;;;;27.85;47.59;101873.69;5285009;28;20090;-73
2022/09/01 10:52:54;;;;;;;10.77;2.28;;;;;;;27.41;47.72;101874.72;5285519;28;20028;-73
2022/09/01 10:55:40;;;;;;;2.53;1.60;;;;;;;27.37;48.52;101874.41;5284275;28;20102;-73
2022/09/01 10:58:35;;;;;;;6.05;1.70;;;;;;;27.32;50.08;101864.16;5272172;28;20036;-72
2022/09/01 11:01:06;;;;;;;7.97;1.42;;;;;;;27.59;50.53;101869.75;5279697;28;20070;-73
2022/09/01 11:03:48;;;;;;;3.17;1.80;;;;;;;27.83;50.04;101855.75;5264854;28;20114;-73
2022/09/01 11:06:57;;;;;;;3.33;1.70;;;;;;;27.88;49.43;101864.09;5282782;28;20027;-73
2022/09/01 11:09:34;;;;;;;6.07;1.40;;;;;;;27.83;50.33;101864.03;5272195;28;20419;-73
2022/09/01 11:12:23;;;;;;;2.60;1.50;;;;;;;27.70;48.77;101858.84;5282558;28;20026;-73
2022/09/01 11:14:57;;;;;;;3.92;1.65;;;;;;;27.63;49.68;101864.56;5282211;28;20405;-73
2022/09/01 11:17:54;;;;;;;4.57;1.70;;;;;;;27.37;50.12;101855.13;5277303;28;20103;-73
2022/09/01 11:20:25;;;;;;;5.43;1.80;;;;;;;27.20;50.13;101851.56;5286435;28;20114;-73
2022/09/01 11:22:55;;;;;;;4.00;1.55;;;;;;;27.09;51.42;101847.81;5287127;28;20036;-72
2022/09/01 11:25:42;;;;;;;7.25;1.60;;;;;;;27.18;51.72;101851.81;5276793;28;20028;-73
2022/09/01 11:28:14;;;;;;;4.47;1.33;;;;;;;27.40;49.94;101859.28;5283654;28;20068;-73
2022/09/01 11:31:22;;;;;;;7.75;1.75;;;;;;;27.44;50.24;101861.28;5286382;28;20036;-73
2022/09/01 11:34:11;;;;;;;5.45;2.17;;;;;;;27.21;49.45;101861.50;5276303;28;20405;-73
2022/09/01 11:36:43;;;;;;;2.28;1.55;;;;;;;26.80;50.41;101852.56;5273523;28;20039;-73
2022/09/01 11:39:35;;;;;;;3.03;1.60;;;;;;;26.93;51.41;101867.94;5285999;28;20023;-73
2022/09/01 11:42:17;;;;;;;5.18;1.80;;;;;;;27.07;51.27;101858.25;5274105;28;20107;-72
2022/09/01 11:44:56;;;;;;;3.17;1.40;;;;;;;27.15;51.31;101859.75;5279165;28;20346;-73
2022/09/01 11:47:35;;;;;;;2.25;1.70;;;;;;;27.34;50.82;101861.13;5281440;28;20024;-73
2022/09/01 11:50:15;;;;;;;1.90;1.67;;;;;;;27.49;49.49;101855.84;5286000;28;20031;-73
2022/09/01 11:52:56;;;;;;;1.95;1.60;;;;;;;27.44;48.71;101857.69;5285815;28;20027;-72
2022/09/01 11:55:32;;;;;;;8.52;1.90;;;;;;;27.60;50.07;101854.03;5285738;28;20023;-73
2022/09/01 11:58:04;;;;;;;3.55;1.80;;;;;;;27.86;50.08;101846.94;5286314;28;20047;-73
2022/09/01 12:00:38;;;;;;;2.30;1.58;;;;;;;28.13;50.76;101847.81;5286054;28;20023;-73
2022/09/01 12:03:28;;;;;;;5.97;1.85;;;;;;;28.37;49.40;101853.06;5285678;28;20053;-72
2022/09/01 12:06:03;;;;;;;3.05;1.75;;;;;;;28.48;48.20;101848.47;5272232;28;20035;-73
2022/09/01 12:08:39;;;;;;;5.00;2.00;;;;;;;28.45;47.44;101849.81;5285910;28;20028;-72
2022/09/01 12:11:17;;;;;;;5.20;1.73;;;;;;;28.29;48.00;101846.06;5286210;28;20027;-72
2022/09/01 12:14:07;;;;;;;2.83;1.48;;;;;;;28.10;47.78;101850.25;5286015;28;20031;-72